createdAt,value
2018-07-22T00:01:28.669Z,22.10
2018-07-22T00:03:57.437Z,22.20
2018-07-22T00:06:25.937Z,22.10
2018-07-22T00:08:55.001Z,22.10
2018-07-22T00:11:23.478Z,22.00
2018-07-22T00:13:52.001Z,22.00
2018-07-22T00:16:20.473Z,22.00
2018-07-22T00:18:49.009Z,22.00
2018-07-22T00:21:17.559Z,22.00
2018-07-22T00:23:46.060Z,22.00
2018-07-22T00:26:14.573Z,21.90
2018-07-22T00:31:11.238Z,21.80
2018-07-22T00:33:39.673Z,21.90
2018-07-22T00:36:08.153Z,22.00
2018-07-22T00:38:36.640Z,21.90
2018-07-22T00:41:05.093Z,21.80
2018-07-22T00:43:33.577Z,21.70
2018-07-22T00:46:02.032Z,21.70
2018-07-22T00:48:30.512Z,21.80
2018-07-22T00:50:58.953Z,21.80
2018-07-22T00:53:27.413Z,21.80
2018-07-22T00:55:55.877Z,21.70
2018-07-22T00:58:24.360Z,21.60
2018-07-22T01:00:52.860Z,21.70
2018-07-22T01:03:21.317Z,21.60
2018-07-22T01:05:49.856Z,21.60
2018-07-22T01:08:18.308Z,21.40
2018-07-22T01:10:46.802Z,21.40
2018-07-22T01:13:15.310Z,21.50
2018-07-22T01:15:43.777Z,21.50
2018-07-22T01:18:12.299Z,21.40
2018-07-22T01:20:40.730Z,21.30
2018-07-22T01:23:09.221Z,21.30
2018-07-22T01:25:37.677Z,21.20
2018-07-22T01:28:06.153Z,21.20
2018-07-22T01:33:02.781Z,21.10
2018-07-22T01:35:31.282Z,21.10
2018-07-22T01:37:59.767Z,21.10
2018-07-22T01:40:28.289Z,21.10
2018-07-22T01:42:56.769Z,21.10
2018-07-22T01:45:25.261Z,21.10
2018-07-22T01:47:53.717Z,21.00
2018-07-22T01:50:22.154Z,20.80
2018-07-22T01:52:50.645Z,20.70
2018-07-22T01:55:19.080Z,20.70
2018-07-22T01:57:47.561Z,20.70
2018-07-22T02:00:16.189Z,20.70
2018-07-22T02:02:44.813Z,20.70
2018-07-22T02:05:13.306Z,20.60
2018-07-22T02:07:41.770Z,20.50
2018-07-22T02:10:10.246Z,20.60
2018-07-22T02:12:38.738Z,20.60
2018-07-22T02:15:07.528Z,20.70
2018-07-22T02:17:36.012Z,20.80
2018-07-22T02:20:04.592Z,20.70
2018-07-22T02:22:33.053Z,20.60
2018-07-22T02:25:01.512Z,20.60
2018-07-22T02:27:29.970Z,20.70
2018-07-22T02:29:58.425Z,20.70
2018-07-22T02:32:26.850Z,20.70
2018-07-22T02:34:55.311Z,20.50
2018-07-22T02:37:23.742Z,20.60
2018-07-22T02:39:52.200Z,20.50
2018-07-22T02:42:20.654Z,20.40
2018-07-22T02:44:49.100Z,20.30
2018-07-22T02:47:17.540Z,20.30
2018-07-22T02:49:46.001Z,20.40
2018-07-22T02:52:14.460Z,20.50
2018-07-22T02:54:42.906Z,20.40
2018-07-22T02:57:11.349Z,20.30
2018-07-22T02:59:39.801Z,20.40
2018-07-22T03:02:08.268Z,20.20
2018-07-22T03:04:36.714Z,20.20
2018-07-22T03:07:05.145Z,20.20
2018-07-22T03:09:33.598Z,20.30
2018-07-22T03:12:02.067Z,20.20
2018-07-22T03:14:30.533Z,20.20
2018-07-22T03:16:58.973Z,20.10
2018-07-22T03:19:27.405Z,20.10
2018-07-22T03:21:55.861Z,20.10
2018-07-22T03:24:24.302Z,20.20
2018-07-22T03:26:52.756Z,20.20
2018-07-22T03:29:21.189Z,20.20
2018-07-22T03:31:49.644Z,20.20
2018-07-22T03:34:18.093Z,20.20
2018-07-22T03:36:46.528Z,20.20
2018-07-22T03:39:14.980Z,20.10
2018-07-22T03:41:43.443Z,20.10
2018-07-22T03:44:11.900Z,20.00
2018-07-22T03:46:40.372Z,20.10
2018-07-22T03:49:08.813Z,20.00
2018-07-22T03:51:37.253Z,20.00
2018-07-22T03:54:05.703Z,20.10
2018-07-22T03:56:34.141Z,20.20
2018-07-22T03:59:02.593Z,20.10
2018-07-22T04:01:31.020Z,20.00
2018-07-22T04:03:59.538Z,20.00
2018-07-22T04:08:56.131Z,19.90
2018-07-22T04:11:24.577Z,19.80
2018-07-22T04:13:53.032Z,19.80
2018-07-22T04:16:21.520Z,19.90
2018-07-22T04:18:53.965Z,20.00
2018-07-22T04:21:23.852Z,19.80
2018-07-22T04:23:52.473Z,19.80
2018-07-22T04:26:21.661Z,19.80
2018-07-22T04:28:50.749Z,19.70
2018-07-22T04:31:19.200Z,19.70
2018-07-22T04:33:47.649Z,19.60
2018-07-22T04:36:16.110Z,19.70
2018-07-22T04:38:44.572Z,19.60
2018-07-22T04:41:13.025Z,19.60
2018-07-22T04:43:41.469Z,19.50
2018-07-22T04:46:09.928Z,19.60
2018-07-22T04:48:38.377Z,19.70
2018-07-22T04:51:06.919Z,19.70
2018-07-22T04:53:35.447Z,19.70
2018-07-22T04:56:04.166Z,19.70
2018-07-22T04:58:32.655Z,19.60
2018-07-22T05:01:01.113Z,19.60
2018-07-22T05:03:29.553Z,19.50
2018-07-22T05:05:58.035Z,19.60
2018-07-22T05:08:26.493Z,19.70
2018-07-22T05:10:54.936Z,19.70
2018-07-22T05:13:23.376Z,19.60
2018-07-22T05:15:51.824Z,19.80
2018-07-22T05:18:20.254Z,19.70
2018-07-22T05:20:48.733Z,19.70
2018-07-22T05:23:17.190Z,19.90
2018-07-22T05:25:45.781Z,19.90
2018-07-22T05:28:14.271Z,20.00
2018-07-22T05:30:42.656Z,20.00
2018-07-22T05:33:11.109Z,20.10
2018-07-22T05:35:39.587Z,20.10
2018-07-22T05:38:08.057Z,19.90
2018-07-22T05:40:36.552Z,19.90
2018-07-22T05:43:05.021Z,20.00
2018-07-22T05:45:33.454Z,20.10
2018-07-22T05:48:01.930Z,20.30
2018-07-22T05:50:30.398Z,20.40
2018-07-22T05:52:59.156Z,20.50
2018-07-22T05:55:27.605Z,20.60
2018-07-22T05:57:56.055Z,20.50
2018-07-22T06:00:24.573Z,20.60
2018-07-22T06:02:53.077Z,20.80
2018-07-22T06:05:21.560Z,20.90
2018-07-22T06:07:50.012Z,21.10
2018-07-22T06:10:18.470Z,21.20
2018-07-22T06:12:46.926Z,21.10
2018-07-22T06:15:15.408Z,20.80
2018-07-22T06:17:43.895Z,20.90
2018-07-22T06:20:12.344Z,21.30
2018-07-22T06:22:40.849Z,21.60
2018-07-22T06:25:09.332Z,22.00
2018-07-22T06:27:37.856Z,22.20
2018-07-22T06:30:06.760Z,22.50
2018-07-22T06:32:35.331Z,22.70
2018-07-22T06:35:03.817Z,23.30
2018-07-22T06:37:32.298Z,24.10
2018-07-22T06:40:00.765Z,24.50
2018-07-22T06:42:29.246Z,24.50
2018-07-22T06:44:58.023Z,25.10
2018-07-22T06:47:26.495Z,25.40
2018-07-22T06:49:54.969Z,25.90
2018-07-22T06:52:23.417Z,26.20
2018-07-22T06:54:51.902Z,26.60
2018-07-22T06:57:20.377Z,26.50
2018-07-22T06:59:48.850Z,26.20
2018-07-22T07:02:17.305Z,26.20
2018-07-22T07:04:45.781Z,26.00
2018-07-22T07:07:14.272Z,25.80
2018-07-22T07:09:42.739Z,24.70
2018-07-22T07:12:11.345Z,24.10
2018-07-22T07:14:39.950Z,24.10
2018-07-22T07:17:08.476Z,23.90
2018-07-22T07:19:36.994Z,24.10
2018-07-22T07:22:05.563Z,24.40
2018-07-22T07:24:34.022Z,24.40
2018-07-22T07:29:30.789Z,24.30
2018-07-22T07:31:59.309Z,24.30
2018-07-22T07:34:27.990Z,24.40
2018-07-22T07:36:56.445Z,25.40
2018-07-22T07:39:24.953Z,25.60
2018-07-22T07:41:53.769Z,26.50
2018-07-22T07:44:22.249Z,27.30
2018-07-22T07:46:50.794Z,27.40
2018-07-22T07:49:19.290Z,27.90
2018-07-22T07:51:47.752Z,27.90
2018-07-22T07:56:44.406Z,28.30
2018-07-22T07:59:12.908Z,26.80
2018-07-22T08:01:41.381Z,26.30
2018-07-22T08:04:09.842Z,27.30
2018-07-22T08:06:38.325Z,28.50
2018-07-22T08:09:07.761Z,29.20
2018-07-22T08:11:36.313Z,29.80
2018-07-22T08:14:04.844Z,29.50
2018-07-22T08:16:33.461Z,29.20
2018-07-22T08:19:01.977Z,28.80
2018-07-22T08:21:30.448Z,29.30
2018-07-22T08:23:58.925Z,29.80
2018-07-22T08:26:27.400Z,29.40
2018-07-22T08:29:32.245Z,30.00
2018-07-22T08:34:29.778Z,30.10
2018-07-22T08:36:58.305Z,29.40
2018-07-22T08:39:28.164Z,29.20
2018-07-22T08:41:57.257Z,29.50
2018-07-22T08:44:25.819Z,29.90
2018-07-22T08:46:54.366Z,30.50
2018-07-22T08:49:22.841Z,30.20
2018-07-22T08:51:51.324Z,30.90
2018-07-22T08:54:19.754Z,31.90
2018-07-22T08:56:48.240Z,32.40
2018-07-22T08:59:16.717Z,32.20
2018-07-22T09:01:45.196Z,31.20
2018-07-22T09:04:13.694Z,31.50
2018-07-22T09:06:42.145Z,32.20
2018-07-22T09:09:11.840Z,32.60
2018-07-22T09:11:40.467Z,33.80
2018-07-22T09:14:09.788Z,34.50
2018-07-22T09:16:38.354Z,34.80
2018-07-22T09:21:34.999Z,35.10
2018-07-22T09:24:03.496Z,35.60
2018-07-22T09:26:32.002Z,36.10
2018-07-22T09:29:00.457Z,35.40
2018-07-22T09:31:28.969Z,34.40
2018-07-22T09:36:25.629Z,35.50
2018-07-22T09:38:54.061Z,35.90
2018-07-22T09:43:50.670Z,36.20
2018-07-22T09:46:19.123Z,35.90
2018-07-22T09:48:47.636Z,36.10
2018-07-22T09:51:16.078Z,36.00
2018-07-22T09:53:44.588Z,34.90
2018-07-22T09:56:13.066Z,35.00
2018-07-22T09:58:41.524Z,35.70
2018-07-22T10:01:09.966Z,36.60
2018-07-22T10:03:38.474Z,36.60
2018-07-22T10:06:07.016Z,36.60
2018-07-22T10:08:35.477Z,36.60
2018-07-22T10:11:03.995Z,35.50
2018-07-22T10:13:32.443Z,35.50
2018-07-22T10:18:29.048Z,36.50
2018-07-22T10:20:57.473Z,35.90
2018-07-22T10:23:26.016Z,35.70
2018-07-22T10:25:54.461Z,35.30
2018-07-22T10:30:51.083Z,36.50
2018-07-22T10:33:19.579Z,36.00
2018-07-22T10:35:48.074Z,35.90
2018-07-22T10:38:16.493Z,35.60
2018-07-22T10:40:45.008Z,34.80
2018-07-22T10:43:13.491Z,35.30
2018-07-22T10:45:41.989Z,36.00
2018-07-22T10:48:10.483Z,36.60
2018-07-22T10:50:38.967Z,35.90
2018-07-22T10:53:07.402Z,36.80
2018-07-22T10:55:35.948Z,36.00
2018-07-22T11:00:34.785Z,35.10
2018-07-22T11:03:04.712Z,35.40
2018-07-22T11:05:33.195Z,35.30
2018-07-22T11:12:57.933Z,35.80
2018-07-22T11:17:54.544Z,35.80
2018-07-22T11:20:23.005Z,36.20
2018-07-22T11:22:51.464Z,36.30
2018-07-22T11:25:19.973Z,36.50
2018-07-22T11:27:48.422Z,36.70
2018-07-22T11:32:45.017Z,37.60
2018-07-22T11:35:13.473Z,36.90
2018-07-22T11:37:41.945Z,36.80
2018-07-22T11:40:10.409Z,36.20
2018-07-22T11:42:38.849Z,35.20
2018-07-22T11:45:07.320Z,35.50
2018-07-22T11:47:36.059Z,36.00
2018-07-22T11:50:05.013Z,36.10
2018-07-22T11:52:33.473Z,36.20
2018-07-22T11:55:01.933Z,36.10
2018-07-22T11:57:30.393Z,36.10
2018-07-22T12:02:27.029Z,37.00
2018-07-22T12:04:55.465Z,36.50
2018-07-22T12:07:23.931Z,35.90
2018-07-22T12:09:52.412Z,35.70
2018-07-22T12:12:20.935Z,36.00
2018-07-22T12:14:49.407Z,36.30
2018-07-22T12:17:17.925Z,35.90
2018-07-22T12:19:46.384Z,35.20
2018-07-22T12:22:14.909Z,35.30
2018-07-22T12:24:43.388Z,35.10
2018-07-22T12:27:11.940Z,34.30
2018-07-22T12:29:40.411Z,34.60
2018-07-22T12:32:08.913Z,34.90
2018-07-22T12:34:37.405Z,34.90
2018-07-22T12:37:05.952Z,35.60
2018-07-22T12:39:34.422Z,35.90
2018-07-22T12:42:02.952Z,36.40
2018-07-22T12:44:31.441Z,36.60
2018-07-22T12:46:59.928Z,35.40
2018-07-22T12:49:28.417Z,34.40
2018-07-22T12:51:56.897Z,34.00
2018-07-22T12:54:25.382Z,33.80
2018-07-22T12:56:53.839Z,34.20
2018-07-22T12:59:22.311Z,33.90
2018-07-22T13:01:50.761Z,34.20
2018-07-22T13:04:19.317Z,34.40
2018-07-22T13:06:47.796Z,34.90
2018-07-22T13:09:16.268Z,35.20
2018-07-22T13:11:44.693Z,34.10
2018-07-22T13:14:13.185Z,33.40
2018-07-22T13:19:09.767Z,33.70
2018-07-22T13:21:38.241Z,33.90
2018-07-22T13:24:06.691Z,34.60
2018-07-22T13:26:35.944Z,35.10
2018-07-22T13:29:04.426Z,34.40
2018-07-22T13:31:32.995Z,34.40
2018-07-22T13:34:01.440Z,34.30
2018-07-22T13:36:29.894Z,34.40
2018-07-22T13:41:26.545Z,33.60
2018-07-22T13:43:55.626Z,33.50
2018-07-22T13:46:24.085Z,34.20
2018-07-22T13:48:52.528Z,34.40
2018-07-22T13:51:21.000Z,34.00
2018-07-22T13:53:49.477Z,34.20
2018-07-22T13:56:17.933Z,34.40
2018-07-22T13:58:46.397Z,34.70
2018-07-22T14:01:14.907Z,34.50
2018-07-22T14:03:43.385Z,34.00
2018-07-22T14:06:11.843Z,34.20
2018-07-22T14:08:40.297Z,34.10
2018-07-22T14:11:08.762Z,33.30
2018-07-22T14:13:37.196Z,32.90
2018-07-22T14:16:05.670Z,32.60
2018-07-22T14:18:34.124Z,32.30
2018-07-22T14:21:02.556Z,32.70
2018-07-22T14:23:31.025Z,32.70
2018-07-22T14:25:59.494Z,33.10
2018-07-22T14:28:27.981Z,33.10
2018-07-22T14:30:56.396Z,32.90
2018-07-22T14:33:24.873Z,32.30
2018-07-22T14:35:53.362Z,32.30
2018-07-22T14:38:21.816Z,32.70
2018-07-22T14:40:50.373Z,33.00
2018-07-22T14:43:18.764Z,33.00
2018-07-22T14:45:47.244Z,32.90
2018-07-22T14:48:15.713Z,33.10
2018-07-22T14:50:44.169Z,33.40
2018-07-22T14:53:12.645Z,32.70
2018-07-22T14:55:41.090Z,32.80
2018-07-22T14:58:09.537Z,32.60
2018-07-22T15:00:37.981Z,32.50
2018-07-22T15:03:06.775Z,31.40
2018-07-22T15:05:35.232Z,31.30
2018-07-22T15:10:31.789Z,31.20
2018-07-22T15:13:00.261Z,31.50
2018-07-22T15:15:28.706Z,31.90
2018-07-22T15:17:57.212Z,31.90
2018-07-22T15:20:25.693Z,31.50
2018-07-22T15:25:22.386Z,31.30
2018-07-22T15:27:50.870Z,31.10
2018-07-22T15:30:19.368Z,30.90
2018-07-22T15:35:15.994Z,30.80
2018-07-22T15:37:44.453Z,30.90
2018-07-22T15:40:12.900Z,30.70
2018-07-22T15:42:41.490Z,30.50
2018-07-22T15:45:09.965Z,30.30
2018-07-22T15:47:38.581Z,30.30
2018-07-22T15:50:07.081Z,30.20
2018-07-22T15:52:35.537Z,30.10
2018-07-22T15:57:32.128Z,30.10
2018-07-22T16:00:00.608Z,29.70
2018-07-22T16:02:29.168Z,29.70
2018-07-22T16:04:57.623Z,29.70
2018-07-22T16:07:26.067Z,29.70
2018-07-22T16:09:54.536Z,29.60
2018-07-22T16:12:22.988Z,29.50
2018-07-22T16:14:51.534Z,29.30
2018-07-22T16:19:48.214Z,28.90
2018-07-22T16:22:16.698Z,28.80
2018-07-22T16:24:45.217Z,28.80
2018-07-22T16:29:42.293Z,28.60
2018-07-22T16:32:10.818Z,28.50
2018-07-22T16:34:39.323Z,28.50
2018-07-22T16:37:07.943Z,28.50
2018-07-22T16:39:36.436Z,28.40
2018-07-22T16:42:04.904Z,28.30
2018-07-22T16:44:33.826Z,28.30
2018-07-22T16:47:02.390Z,28.10
2018-07-22T16:49:30.863Z,28.10
2018-07-22T16:51:59.333Z,28.00
2018-07-22T16:54:27.805Z,27.90
2018-07-22T16:56:56.276Z,27.90
2018-07-22T16:59:24.769Z,27.90
2018-07-22T17:01:53.212Z,28.00
2018-07-22T17:04:21.732Z,28.10
2018-07-22T17:06:50.222Z,28.00
2018-07-22T17:09:18.684Z,28.10
2018-07-22T17:11:47.185Z,28.20
2018-07-22T17:16:43.806Z,28.40
2018-07-22T17:19:12.255Z,28.50
2018-07-22T17:21:40.942Z,28.60
2018-07-22T17:24:09.421Z,28.30
2018-07-22T17:26:37.884Z,28.20
2018-07-22T17:29:06.338Z,28.10
2018-07-22T17:31:34.798Z,27.90
2018-07-22T17:34:03.497Z,27.90
2018-07-22T17:36:31.954Z,27.80
2018-07-22T17:39:00.501Z,27.70
2018-07-22T17:41:28.921Z,27.70
2018-07-22T17:43:57.370Z,27.70
2018-07-22T17:46:25.845Z,27.80
2018-07-22T17:48:54.290Z,27.70
2018-07-22T17:51:22.745Z,27.70
2018-07-22T17:53:52.077Z,27.70
2018-07-22T17:56:20.539Z,27.60
2018-07-22T17:58:48.995Z,27.40
2018-07-22T18:01:17.570Z,27.30
2018-07-22T18:03:46.046Z,27.20
2018-07-22T18:06:14.497Z,27.20
2018-07-22T18:08:42.952Z,27.20
2018-07-22T18:11:11.402Z,27.20
2018-07-22T18:13:39.860Z,27.20
2018-07-22T18:16:08.341Z,27.10
2018-07-22T18:18:36.811Z,27.10
2018-07-22T18:21:05.324Z,27.00
2018-07-22T18:23:33.801Z,27.00
2018-07-22T18:26:02.270Z,27.00
2018-07-22T18:28:30.776Z,26.90
2018-07-22T18:30:59.261Z,26.80
2018-07-22T18:33:27.741Z,26.90
2018-07-22T18:35:56.192Z,26.80
2018-07-22T18:38:24.669Z,26.90
2018-07-22T18:40:53.173Z,26.80
2018-07-22T18:43:21.641Z,26.70
2018-07-22T18:45:50.146Z,26.70
2018-07-22T18:48:18.684Z,26.70
2018-07-22T18:55:43.366Z,26.50
2018-07-22T18:58:11.827Z,26.50
2018-07-22T19:00:40.301Z,26.50
2018-07-22T19:03:08.754Z,26.50
2018-07-22T19:05:37.235Z,26.50
2018-07-22T19:08:11.637Z,26.40
2018-07-22T19:10:40.134Z,26.40
2018-07-22T19:13:08.617Z,26.40
2018-07-22T19:18:05.264Z,26.30
2018-07-22T19:20:33.690Z,26.30
2018-07-22T19:23:02.162Z,26.20
2018-07-22T19:25:30.621Z,26.10
2018-07-22T19:27:59.070Z,26.10
2018-07-22T19:30:27.693Z,26.00
2018-07-22T19:32:56.137Z,26.00
2018-07-22T19:37:52.814Z,25.90
2018-07-22T19:40:21.346Z,25.70
2018-07-22T19:42:50.033Z,25.60
2018-07-22T19:45:18.465Z,25.50
2018-07-22T19:47:47.304Z,25.50
2018-07-22T19:50:15.744Z,25.40
2018-07-22T19:52:44.181Z,25.40
2018-07-22T19:55:12.649Z,25.40
2018-07-22T19:57:41.078Z,25.40
2018-07-22T20:02:37.672Z,25.30
2018-07-22T20:05:06.274Z,25.30
2018-07-22T20:07:34.730Z,25.30
2018-07-22T20:10:03.237Z,25.20
2018-07-22T20:14:59.869Z,25.20
2018-07-22T20:17:28.310Z,25.10
2018-07-22T20:19:56.862Z,25.10
2018-07-22T20:22:25.314Z,25.10
2018-07-22T20:27:22.870Z,24.90
2018-07-22T20:29:51.333Z,24.80
2018-07-22T20:32:20.325Z,24.80
2018-07-22T20:34:48.784Z,24.70
2018-07-22T20:37:17.245Z,24.70
2018-07-22T20:39:45.953Z,24.60
2018-07-22T20:42:14.405Z,24.50
2018-07-22T20:44:42.881Z,24.40
2018-07-22T20:47:11.657Z,24.30
2018-07-22T20:49:40.090Z,24.30
2018-07-22T20:52:08.586Z,24.30
2018-07-22T20:54:37.111Z,24.40
2018-07-22T20:57:06.023Z,24.40
2018-07-22T20:59:34.609Z,24.40
2018-07-22T21:02:03.043Z,24.40
2018-07-22T21:04:31.510Z,24.40
2018-07-22T21:06:59.926Z,24.40
2018-07-22T21:09:28.385Z,24.40
2018-07-22T21:13:08.120Z,24.40
2018-07-22T21:15:36.618Z,24.40
2018-07-22T21:18:05.114Z,24.40
2018-07-22T21:20:33.589Z,24.30
2018-07-22T21:23:02.003Z,24.30
2018-07-22T21:25:30.453Z,24.20
2018-07-22T21:27:58.903Z,24.10
2018-07-22T21:30:27.329Z,24.10
2018-07-22T21:32:55.778Z,24.10
2018-07-22T21:35:24.262Z,24.00
2018-07-22T21:37:52.709Z,24.00
2018-07-22T21:40:21.194Z,23.90
2018-07-22T21:42:49.634Z,23.90
2018-07-22T21:45:18.041Z,23.90
2018-07-22T21:47:46.475Z,23.80
2018-07-22T21:50:14.985Z,23.80
2018-07-22T21:52:43.444Z,23.70
2018-07-22T21:55:11.937Z,23.70
2018-07-22T21:57:40.389Z,23.70
2018-07-22T22:00:20.702Z,23.50
2018-07-22T22:02:49.157Z,23.50
2018-07-22T22:05:17.841Z,23.50
2018-07-22T22:07:46.290Z,23.40
2018-07-22T22:10:14.761Z,23.40
2018-07-22T22:17:47.426Z,23.30
2018-07-22T22:20:15.865Z,23.20
2018-07-22T22:22:44.350Z,23.20
2018-07-22T22:25:12.780Z,23.10
2018-07-22T22:30:11.323Z,23.00
2018-07-22T22:32:39.802Z,23.00
2018-07-22T22:35:08.508Z,22.80
2018-07-22T22:37:36.929Z,22.80
2018-07-22T22:40:05.446Z,22.70
2018-07-22T22:42:33.907Z,22.60
2018-07-22T22:45:02.329Z,22.50
2018-07-22T22:47:30.768Z,22.50
2018-07-22T22:49:59.268Z,22.50
2018-07-22T22:52:27.758Z,22.50
2018-07-22T22:54:56.528Z,22.40
2018-07-22T22:57:25.062Z,22.40
2018-07-22T22:59:53.476Z,22.40
2018-07-22T23:02:21.961Z,22.30
2018-07-22T23:04:50.690Z,22.30
2018-07-22T23:07:19.141Z,22.30
2018-07-22T23:09:47.583Z,22.20
2018-07-22T23:14:44.124Z,22.20
2018-07-22T23:17:12.552Z,22.10
2018-07-22T23:19:41.108Z,22.00
2018-07-22T23:22:09.526Z,22.00
2018-07-22T23:24:37.959Z,21.90
2018-07-22T23:27:06.391Z,21.90
2018-07-22T23:29:34.844Z,21.90
2018-07-22T23:32:03.321Z,21.80
2018-07-22T23:34:31.731Z,21.80
2018-07-22T23:37:00.184Z,21.70
2018-07-22T23:39:28.769Z,21.70
2018-07-22T23:41:57.225Z,21.70
2018-07-22T23:46:53.829Z,21.70
2018-07-22T23:49:22.238Z,21.80
2018-07-22T23:51:50.662Z,21.70
2018-07-22T23:54:19.080Z,21.70
2018-07-22T23:56:47.573Z,21.50
2018-07-22T23:59:15.988Z,21.50
